Time;durP1;ratioP1;P1;durP2;ratioP2;P2;SDS_P1;SDS_P2;PMS_P1;PMS_P2;Temp;Humidity;BMP_temperature;BMP_pressure;BME280_temperature;BME280_humidity;BME280_pressure;Samples;Min_cycle;Max_cycle;Signal;HPM_P1;HPM_P2
2022/12/10 00:01:43;;;;;;;110.28;74.13;;;333.50;2329.60;;;;;;4990169;28;20033;-64
2022/12/10 00:04:11;;;;;;;198.48;117.75;;;333.50;2329.60;;;;;;4991772;28;20030;-62
2022/12/10 00:06:38;;;;;;;115.45;75.43;;;333.40;2329.60;;;;;;4993403;28;20018;-59
2022/12/10 00:09:06;;;;;;;91.32;53.38;;;333.50;2329.60;;;;;;4993782;28;20038;-64
2022/12/10 00:11:32;;;;;;;172.48;106.00;;;333.40;2329.60;;;;;;4994023;28;20022;-59
2022/12/10 00:13:59;;;;;;;134.05;87.50;;;333.50;2329.60;;;;;;4993968;28;20577;-58
2022/12/10 00:16:27;;;;;;;70.65;46.95;;;333.40;2329.60;;;;;;4993887;28;20462;-59
2022/12/10 00:18:53;;;;;;;90.43;55.55;;;333.50;2329.60;;;;;;4993725;28;20033;-63
2022/12/10 00:21:29;;;;;;;84.60;50.30;;;333.50;2329.60;;;;;;4993816;28;20405;-61
2022/12/10 00:23:55;;;;;;;81.10;56.80;;;333.50;2329.60;;;;;;4992451;28;20034;-60
2022/12/10 00:26:25;;;;;;;83.43;51.72;;;333.50;2329.60;;;;;;4989596;28;20022;-59
2022/12/10 00:28:52;;;;;;;116.93;71.65;;;333.50;2329.60;;;;;;4982791;28;20046;-59
2022/12/10 00:31:23;;;;;;;83.00;46.67;;;333.20;2329.60;;;;;;4989457;28;20026;-62
2022/12/10 00:33:50;;;;;;;114.85;67.47;;;333.20;2329.60;;;;;;4993392;28;20026;-60
2022/12/10 00:36:19;;;;;;;118.43;68.97;;;333.10;2329.60;;;;;;4992889;28;20049;-62
2022/12/10 00:38:45;;;;;;;119.18;70.95;;;333.20;2329.60;;;;;;4979958;28;20070;-62
2022/12/10 00:41:13;;;;;;;103.25;66.88;;;333.10;2329.60;;;;;;4978799;28;20796;-59
2022/12/10 00:43:39;;;;;;;62.95;39.15;;;333.00;2329.60;;;;;;4982426;28;20068;-60
2022/12/10 00:46:05;;;;;;;109.20;63.85;;;333.10;2329.60;;;;;;4992168;28;20026;-61
2022/12/10 00:48:32;;;;;;;60.08;40.78;;;333.20;2329.60;;;;;;4993234;28;20030;-60
2022/12/10 00:51:13;;;;;;;122.82;73.65;;;333.20;2329.60;;;;;;4964939;28;20041;-63
2022/12/10 00:53:41;;;;;;;82.70;54.13;;;333.10;2329.60;;;;;;4980609;28;20094;-61
2022/12/10 00:56:09;;;;;;;314.00;169.38;;;333.10;2329.60;;;;;;4978650;28;20488;-60
2022/12/10 00:58:36;;;;;;;175.18;96.15;;;333.10;2329.60;;;;;;4981769;28;20490;-61
2022/12/10 01:01:12;;;;;;;90.53;55.97;;;333.10;2329.60;;;;;;4981392;28;20022;-59
2022/12/10 01:03:38;;;;;;;73.35;47.60;;;333.00;2329.60;;;;;;4980899;28;20037;-59
2022/12/10 01:06:14;;;;;;;120.32;74.30;;;333.00;2329.60;;;;;;4980584;28;20034;-61
2022/12/10 01:08:41;;;;;;;193.45;110.18;;;333.10;2329.60;;;;;;4978868;28;20031;-60
2022/12/10 01:11:07;;;;;;;176.23;107.13;;;333.10;2329.60;;;;;;4981398;28;20030;-60
2022/12/10 01:13:33;;;;;;;109.55;61.90;;;333.20;2329.60;;;;;;4982886;28;20034;-59
2022/12/10 01:16:03;;;;;;;61.28;37.10;;;333.20;2329.60;;;;;;4980914;28;20092;-62
2022/12/10 01:18:29;;;;;;;44.67;29.25;;;333.20;2329.60;;;;;;4976729;28;20034;-62
2022/12/10 01:20:55;;;;;;;80.70;52.90;;;333.30;2329.60;;;;;;4975640;28;20496;-61
2022/12/10 01:23:21;;;;;;;155.40;93.30;;;333.20;2329.60;;;;;;4989709;28;20033;-60
2022/12/10 01:25:46;;;;;;;55.55;33.17;;;333.10;2329.60;;;;;;4992534;28;20039;-60
2022/12/10 01:28:12;;;;;;;66.07;40.88;;;333.20;2329.60;;;;;;4992801;28;20046;-61
2022/12/10 01:30:37;;;;;;;72.53;40.83;;;333.20;2329.60;;;;;;4992523;28;20473;-58
2022/12/10 01:33:03;;;;;;;57.95;37.83;;;333.20;2329.60;;;;;;4992270;28;20033;-60
2022/12/10 01:35:29;;;;;;;55.35;36.42;;;333.20;2329.60;;;;;;4992515;28;20168;-60
2022/12/10 01:37:54;;;;;;;43.20;27.50;;;333.20;2329.60;;;;;;4992208;28;20026;-59
2022/12/10 01:40:20;;;;;;;52.03;31.90;;;333.20;2329.60;;;;;;4992330;28;20030;-59
2022/12/10 01:42:46;;;;;;;64.90;37.80;;;333.20;2329.60;;;;;;4992169;28;20045;-59
2022/12/10 01:45:12;;;;;;;95.95;60.35;;;333.20;2329.60;;;;;;4992468;28;20506;-60
2022/12/10 01:47:38;;;;;;;77.38;47.40;;;333.20;2329.60;;;;;;4992392;28;20026;-59
2022/12/10 01:50:06;;;;;;;62.55;38.75;;;333.10;2329.60;;;;;;4991937;28;20544;-59
2022/12/10 01:52:32;;;;;;;66.70;36.60;;;333.10;2329.60;;;;;;4991856;28;20065;-60
2022/12/10 01:54:58;;;;;;;60.45;31.92;;;333.10;2329.60;;;;;;4992336;28;20379;-60
2022/12/10 01:57:26;;;;;;;50.88;33.45;;;333.10;2329.60;;;;;;4991801;28;20552;-59
2022/12/10 02:00:01;;;;;;;58.25;33.70;;;333.00;2329.60;;;;;;4992282;28;20026;-60
2022/12/10 02:02:29;;;;;;;54.65;32.55;;;333.00;2329.60;;;;;;4991663;28;20029;-59
2022/12/10 02:05:27;;;;;;;70.82;40.25;;;333.00;2329.60;;;;;;4991939;28;20094;-59
2022/12/10 02:08:30;;;;;;;118.18;73.63;;;332.90;2329.60;;;;;;4991712;28;20093;-60
2022/12/10 02:11:13;;;;;;;87.18;51.17;;;333.00;2329.60;;;;;;4991717;28;20031;-60
2022/12/10 02:13:43;;;;;;;167.02;101.20;;;333.00;2329.60;;;;;;4980991;28;20030;-63
2022/12/10 02:16:17;;;;;;;114.18;70.72;;;332.90;2329.60;;;;;;4981577;28;20027;-62
2022/12/10 02:18:51;;;;;;;84.47;50.38;;;332.90;2329.60;;;;;;4978935;28;20019;-59
2022/12/10 02:21:24;;;;;;;34.40;18.67;;;333.00;2329.60;;;;;;4977330;28;20023;-62
2022/12/10 02:23:56;;;;;;;96.53;57.58;;;333.00;2329.60;;;;;;4979356;28;20391;-62
2022/12/10 02:26:44;;;;;;;114.95;71.78;;;332.90;2329.60;;;;;;4980314;28;20109;-62
2022/12/10 02:29:23;;;;;;;157.10;100.70;;;307.90;2304.00;;;;;;4980555;28;20050;-58
2022/12/10 02:31:55;;;;;;;115.47;79.10;;;307.80;2304.00;;;;;;4981300;28;20073;-60
2022/12/10 02:34:24;;;;;;;111.40;67.57;;;307.80;2304.00;;;;;;4973393;28;20023;-62
2022/12/10 02:36:53;;;;;;;108.65;71.43;;;307.80;2304.00;;;;;;4984453;28;20030;-63
2022/12/10 02:39:24;;;;;;;110.10;74.15;;;307.80;2304.00;;;;;;4979872;28;20397;-62
2022/12/10 02:41:54;;;;;;;124.32;83.30;;;307.80;2304.00;;;;;;4979005;28;20114;-60
2022/12/10 02:44:23;;;;;;;50.67;33.47;;;307.80;2304.00;;;;;;4980367;28;20022;-63
2022/12/10 02:46:52;;;;;;;26.58;17.40;;;308.00;2304.00;;;;;;4980961;28;20026;-63
2022/12/10 02:49:18;;;;;;;21.83;10.00;;;332.90;2329.60;;;;;;4976880;28;20031;-62
2022/12/10 02:51:44;;;;;;;19.63;10.82;;;333.20;2329.60;;;;;;4979565;28;20019;-59
2022/12/10 02:54:40;;;;;;;82.28;52.22;;;333.40;2329.60;;;;;;4980763;28;20037;-62
2022/12/10 02:57:14;;;;;;;71.75;41.95;;;333.10;2329.60;;;;;;4978970;28;20051;-61
2022/12/10 03:00:12;;;;;;;35.05;23.88;;;308.10;2304.00;;;;;;4977768;28;20022;-62
2022/12/10 03:02:53;;;;;;;40.33;24.70;;;308.10;2304.00;;;;;;4976953;28;20054;-62
2022/12/10 03:05:24;;;;;;;62.30;42.58;;;332.80;2329.60;;;;;;4977502;28;20019;-63
2022/12/10 03:07:57;;;;;;;43.20;27.50;;;308.10;2304.00;;;;;;4978632;28;20043;-62
2022/12/10 03:10:26;;;;;;;23.13;12.15;;;332.80;2329.60;;;;;;4979628;28;20422;-59
2022/12/10 03:12:59;;;;;;;22.20;14.65;;;333.20;2329.60;;;;;;4980657;28;20046;-60
2022/12/10 03:15:27;;;;;;;22.58;12.90;;;333.30;2329.60;;;;;;4980072;28;20034;-58
2022/12/10 03:17:55;;;;;;;34.40;20.98;;;333.30;2329.60;;;;;;4978641;28;20351;-58
2022/12/10 03:20:23;;;;;;;29.13;17.35;;;333.30;2329.60;;;;;;4975346;28;20081;-59
2022/12/10 03:22:49;;;;;;;29.08;16.50;;;333.40;2329.60;;;;;;4971101;28;20422;-59
2022/12/10 03:25:21;;;;;;;36.42;20.98;;;333.40;2329.60;;;;;;4971144;28;20042;-59
2022/12/10 03:27:50;;;;;;;23.70;13.00;;;333.40;2329.60;;;;;;4971310;28;20035;-59
2022/12/10 03:30:16;;;;;;;12.88;7.80;;;333.70;2329.60;;;;;;4971153;28;20131;-59
2022/12/10 03:32:44;;;;;;;24.52;15.38;;;358.70;2329.60;;;;;;4971275;28;20039;-59
2022/12/10 03:35:10;;;;;;;22.77;11.63;;;358.70;2329.60;;;;;;4971021;28;20492;-60
2022/12/10 03:37:37;;;;;;;25.80;15.30;;;358.60;2329.60;;;;;;4970948;28;20062;-58
2022/12/10 03:40:05;;;;;;;16.85;12.95;;;358.50;2329.60;;;;;;4974091;28;20038;-59
2022/12/10 03:42:30;;;;;;;31.38;21.50;;;358.50;2329.60;;;;;;4975027;28;20086;-60
2022/12/10 03:44:56;;;;;;;14.32;8.48;;;358.40;2329.60;;;;;;4974952;28;20077;-61
2022/12/10 03:47:23;;;;;;;37.97;20.85;;;358.40;2329.60;;;;;;4974962;28;20027;-60
2022/12/10 03:49:49;;;;;;;29.13;19.40;;;358.50;2329.60;;;;;;4974907;28;20113;-59
2022/12/10 03:52:15;;;;;;;34.47;23.75;;;358.40;2329.60;;;;;;4974630;28;20113;-59
2022/12/10 03:54:41;;;;;;;25.42;16.25;;;358.40;2329.60;;;;;;4975069;28;20039;-61
2022/12/10 03:57:07;;;;;;;24.30;19.00;;;358.40;2329.60;;;;;;4974768;28;20494;-60
2022/12/10 03:59:32;;;;;;;18.15;12.00;;;358.40;2329.60;;;;;;4974647;28;20073;-60
2022/12/10 04:01:58;;;;;;;19.55;13.98;;;358.50;2329.60;;;;;;4974780;28;20026;-60
2022/12/10 04:04:24;;;;;;;20.92;12.50;;;358.50;2329.60;;;;;;4974833;28;20107;-61
2022/12/10 04:06:50;;;;;;;31.25;21.85;;;358.50;2329.60;;;;;;4974715;28;20050;-60
2022/12/10 04:09:16;;;;;;;108.13;53.05;;;358.50;2329.60;;;;;;4974311;28;20043;-61
2022/12/10 04:11:43;;;;;;;62.03;33.85;;;358.50;2329.60;;;;;;4974939;28;20953;-61
2022/12/10 04:16:54;;;;;;;27.80;15.63;;;358.70;2329.60;;;;;;4974756;28;20119;-61
2022/12/10 04:19:20;;;;;;;42.45;25.17;;;358.70;2329.60;;;;;;4974558;28;20062;-59
2022/12/10 04:27:21;;;;;;;16.05;8.43;;;358.80;2329.60;;;;;;4974712;28;20122;-59
2022/12/10 04:29:47;;;;;;;37.33;19.60;;;358.80;2329.60;;;;;;4974439;28;20074;-59
2022/12/10 04:32:13;;;;;;;23.95;11.18;;;358.70;2329.60;;;;;;4974035;28;20026;-59
2022/12/10 04:34:39;;;;;;;29.42;16.88;;;358.70;2329.60;;;;;;4974505;28;20031;-62
2022/12/10 04:37:06;;;;;;;23.95;15.40;;;358.70;2329.60;;;;;;4973757;28;20458;-58
2022/12/10 04:39:31;;;;;;;23.85;13.45;;;358.70;2329.60;;;;;;4974222;28;20035;-60
2022/12/10 04:41:58;;;;;;;28.73;14.00;;;358.70;2329.60;;;;;;4974115;28;20031;-59
2022/12/10 04:44:24;;;;;;;18.15;9.07;;;358.70;2329.60;;;;;;4973963;28;20034;-59
2022/12/10 04:46:50;;;;;;;11.95;6.20;;;358.70;2329.60;;;;;;4974037;28;20022;-61
2022/12/10 04:49:16;;;;;;;17.45;7.68;;;358.80;2329.60;;;;;;4973131;28;20411;-61
2022/12/10 04:51:41;;;;;;;13.68;8.88;;;358.90;2329.60;;;;;;4973791;28;20027;-62
2022/12/10 04:54:07;;;;;;;15.55;9.77;;;358.90;2329.60;;;;;;4973667;28;20026;-60
2022/12/10 04:56:34;;;;;;;15.80;8.80;;;359.00;2329.60;;;;;;4973577;28;20147;-59
2022/12/10 04:59:00;;;;;;;16.83;7.88;;;359.00;2329.60;;;;;;4973796;28;20034;-59
2022/12/10 05:01:26;;;;;;;16.10;8.93;;;359.00;2329.60;;;;;;4973446;28;20034;-61
2022/12/10 05:03:53;;;;;;;12.68;8.40;;;359.10;2329.60;;;;;;4973515;28;20046;-59
2022/12/10 05:06:20;;;;;;;11.20;7.75;;;359.20;2329.60;;;;;;4973733;28;20038;-59
2022/12/10 05:08:46;;;;;;;19.95;11.85;;;359.20;2329.60;;;;;;4973507;28;21132;-60
2022/12/10 05:11:18;;;;;;;30.92;19.05;;;359.20;2329.60;;;;;;4973460;28;20492;-61
2022/12/10 05:13:44;;;;;;;41.85;30.02;;;359.10;2329.60;;;;;;4973384;28;20078;-59
2022/12/10 05:16:12;;;;;;;36.25;25.13;;;358.90;2329.60;;;;;;4973488;28;20026;-58
2022/12/10 05:18:38;;;;;;;37.47;27.00;;;358.80;2329.60;;;;;;4973493;28;20121;-58
2022/12/10 05:21:06;;;;;;;31.95;20.65;;;358.70;2329.60;;;;;;4973396;28;20426;-61
2022/12/10 05:23:35;;;;;;;11.57;6.60;;;358.70;2329.60;;;;;;4973432;28;20220;-58
2022/12/10 05:26:18;;;;;;;20.15;9.75;;;358.90;2329.60;;;;;;4973199;28;20081;-58
2022/12/10 05:28:55;;;;;;;21.55;10.23;;;359.10;2329.60;;;;;;4972969;28;20029;-59
2022/12/10 05:31:22;;;;;;;23.50;11.38;;;359.30;2329.60;;;;;;4973308;28;20035;-59
2022/12/10 05:33:48;;;;;;;31.55;18.35;;;359.30;2329.60;;;;;;4973173;28;20027;-58
2022/12/10 05:36:17;;;;;;;18.83;8.40;;;359.30;2329.60;;;;;;4972880;28;20030;-59
2022/12/10 05:38:43;;;;;;;11.55;5.88;;;384.00;2329.60;;;;;;4972862;28;20035;-60
2022/12/10 05:41:16;;;;;;;9.35;3.90;;;384.10;2329.60;;;;;;4973103;28;20030;-59
2022/12/10 05:43:43;;;;;;;11.98;5.65;;;384.30;2329.60;;;;;;4972713;28;20023;-61
2022/12/10 05:46:29;;;;;;;10.13;5.95;;;384.30;2329.60;;;;;;4972704;28;20039;-59
2022/12/10 05:48:55;;;;;;;8.18;6.78;;;384.40;2329.60;;;;;;4972824;28;20070;-61
2022/12/10 05:51:23;;;;;;;13.15;8.25;;;384.60;2329.60;;;;;;4972958;28;20026;-62
2022/12/10 05:53:51;;;;;;;45.00;30.23;;;384.60;2329.60;;;;;;4972800;28;20023;-59
2022/12/10 05:56:19;;;;;;;22.65;16.00;;;384.50;2329.60;;;;;;4972155;28;20493;-59
2022/12/10 05:58:46;;;;;;;28.88;22.70;;;384.40;2329.60;;;;;;4972668;28;20030;-61
2022/12/10 06:01:20;;;;;;;35.28;27.10;;;384.30;2329.60;;;;;;4971772;28;20027;-59
2022/12/10 06:03:47;;;;;;;19.30;12.63;;;384.20;2329.60;;;;;;4972352;28;20027;-62
2022/12/10 06:06:13;;;;;;;18.48;12.13;;;384.20;2329.60;;;;;;4972151;28;20041;-61
2022/12/10 06:08:38;;;;;;;21.10;13.63;;;384.10;2329.60;;;;;;4972119;28;20031;-58
2022/12/10 06:11:07;;;;;;;15.57;10.02;;;384.10;2329.60;;;;;;4972357;28;20027;-59
2022/12/10 06:13:33;;;;;;;12.68;8.05;;;384.10;2329.60;;;;;;4972466;28;20038;-59
2022/12/10 06:15:58;;;;;;;12.57;7.60;;;384.10;2329.60;;;;;;4972439;28;20023;-59
2022/12/10 06:18:24;;;;;;;12.43;7.05;;;384.10;2329.60;;;;;;4972379;28;20030;-58
2022/12/10 06:20:50;;;;;;;8.90;6.68;;;384.10;2329.60;;;;;;4972211;28;20027;-61
2022/12/10 06:23:16;;;;;;;12.90;5.40;;;384.10;2329.60;;;;;;4971873;28;20046;-61
2022/12/10 06:25:42;;;;;;;12.43;8.73;;;384.10;2329.60;;;;;;4972030;28;20018;-61
2022/12/10 06:28:08;;;;;;;65.78;39.28;;;384.00;2329.60;;;;;;4972239;28;20366;-58
2022/12/10 06:30:34;;;;;;;52.00;33.50;;;359.30;2329.60;;;;;;4972047;28;20039;-57
2022/12/10 06:33:00;;;;;;;36.40;25.38;;;359.20;2329.60;;;;;;4972071;28;20373;-61
2022/12/10 06:35:26;;;;;;;34.70;23.48;;;359.10;2329.60;;;;;;4971769;28;20037;-61
2022/12/10 06:37:52;;;;;;;28.77;18.75;;;359.10;2329.60;;;;;;4971987;28;20054;-58
2022/12/10 06:40:18;;;;;;;24.27;16.48;;;359.10;2329.60;;;;;;4971882;28;20069;-59
2022/12/10 06:42:44;;;;;;;33.35;18.63;;;359.10;2329.60;;;;;;4971854;28;20022;-58
2022/12/10 06:45:10;;;;;;;23.30;15.32;;;359.10;2329.60;;;;;;4971758;28;20450;-58
2022/12/10 06:47:35;;;;;;;31.55;20.92;;;359.20;2329.60;;;;;;4971576;28;20041;-58
2022/12/10 06:50:01;;;;;;;192.90;121.18;;;359.20;2329.60;;;;;;4971807;28;20126;-58
2022/12/10 06:52:27;;;;;;;175.10;110.05;;;359.20;2329.60;;;;;;4971378;28;20027;-58
2022/12/10 06:54:54;;;;;;;137.18;88.63;;;359.20;2329.60;;;;;;4971326;28;20042;-61
2022/12/10 06:57:20;;;;;;;150.25;96.93;;;359.20;2329.60;;;;;;4971476;28;20474;-61
2022/12/10 06:59:46;;;;;;;86.13;60.42;;;359.30;2329.60;;;;;;4954241;28;20027;-62
2022/12/10 07:02:12;;;;;;;68.43;48.03;;;359.30;2329.60;;;;;;4971548;28;20027;-58
2022/12/10 07:04:38;;;;;;;37.17;25.85;;;359.30;2329.60;;;;;;4971594;28;20098;-61
2022/12/10 07:07:06;;;;;;;102.85;72.47;;;384.10;2329.60;;;;;;4971080;28;20381;-58
2022/12/10 07:09:32;;;;;;;92.20;67.43;;;384.10;2329.60;;;;;;4971362;28;20039;-58
2022/12/10 07:11:58;;;;;;;57.92;48.05;;;384.10;2329.60;;;;;;4971403;28;20426;-58
2022/12/10 07:14:23;;;;;;;35.28;29.65;;;384.10;2329.60;;;;;;4971218;28;20046;-62
2022/12/10 07:16:49;;;;;;;67.15;47.95;;;384.20;2329.60;;;;;;4971499;28;20022;-58
2022/12/10 07:19:15;;;;;;;62.97;44.17;;;384.20;2329.60;;;;;;4971124;28;20537;-58
2022/12/10 07:21:42;;;;;;;133.30;104.07;;;384.20;2329.60;;;;;;4971391;28;20034;-58
2022/12/10 07:24:13;;;;;;;64.95;52.58;;;384.20;2329.60;;;;;;4971380;28;20114;-59
2022/12/10 07:26:41;;;;;;;158.63;114.25;;;384.30;2329.60;;;;;;4971181;28;20106;-58
2022/12/10 07:29:09;;;;;;;72.15;49.28;;;384.20;2329.60;;;;;;4971261;28;20042;-58
2022/12/10 07:31:36;;;;;;;53.33;39.55;;;384.20;2329.60;;;;;;4971475;28;20027;-58
2022/12/10 07:34:01;;;;;;;98.53;79.35;;;384.30;2329.60;;;;;;4971465;28;20031;-60
2022/12/10 07:36:27;;;;;;;83.32;66.28;;;384.90;2329.60;;;;;;4970914;28;20042;-61
2022/12/10 07:38:54;;;;;;;64.22;46.50;;;384.40;2329.60;;;;;;4971039;28;20042;-61
2022/12/10 07:41:21;;;;;;;77.13;55.35;;;384.50;2329.60;;;;;;4971171;28;20062;-58
2022/12/10 07:43:47;;;;;;;89.65;66.45;;;384.70;2329.60;;;;;;4971178;28;20090;-59
2022/12/10 07:46:17;;;;;;;13.90;9.35;;;409.60;2355.20;;;;;;4971009;28;20501;-59
2022/12/10 07:48:45;;;;;;;13.82;9.52;;;409.60;2355.20;;;;;;4970696;28;20125;-59
2022/12/10 07:51:12;;;;;;;45.75;33.92;;;409.70;2355.20;;;;;;4970742;28;20023;-58
2022/12/10 07:53:37;;;;;;;46.60;36.10;;;409.70;2355.20;;;;;;4970794;28;20022;-58
2022/12/10 07:56:04;;;;;;;41.17;33.35;;;409.70;2355.20;;;;;;4975988;28;20045;-57
2022/12/10 07:58:30;;;;;;;30.35;22.83;;;409.70;2355.20;;;;;;4990568;28;20035;-61
2022/12/10 08:00:56;;;;;;;24.17;16.83;;;409.80;2355.20;;;;;;4990171;28;20481;-58
2022/12/10 08:03:21;;;;;;;13.85;10.02;;;409.80;2355.20;;;;;;4988214;28;20022;-61
2022/12/10 08:05:47;;;;;;;11.68;7.43;;;409.90;2355.20;;;;;;4953146;28;20038;-62
2022/12/10 08:08:13;;;;;;;17.33;11.15;;;409.90;2355.20;;;;;;4970290;28;20161;-62
2022/12/10 08:10:39;;;;;;;20.48;12.43;;;410.00;2355.20;;;;;;4970859;28;20061;-61
2022/12/10 08:13:06;;;;;;;27.98;19.15;;;410.00;2355.20;;;;;;4970878;28;20465;-62
2022/12/10 08:15:32;;;;;;;49.83;33.13;;;410.00;2355.20;;;;;;4971013;28;20054;-61
2022/12/10 08:17:58;;;;;;;75.25;50.72;;;410.20;2355.20;;;;;;4970936;28;20461;-58
2022/12/10 08:20:24;;;;;;;43.72;26.65;;;410.20;2355.20;;;;;;4970878;28;20022;-58
2022/12/10 08:22:51;;;;;;;45.95;26.92;;;410.20;2355.20;;;;;;4970686;28;20434;-64
2022/12/10 08:25:17;;;;;;;38.65;25.08;;;410.20;2355.20;;;;;;4972309;28;20034;-59
2022/12/10 08:27:42;;;;;;;49.67;32.80;;;410.20;2355.20;;;;;;4974122;28;20066;-59
2022/12/10 08:30:09;;;;;;;35.35;23.50;;;410.00;2355.20;;;;;;4974165;28;20070;-59
2022/12/10 08:32:34;;;;;;;31.05;22.60;;;410.00;2355.20;;;;;;4974226;28;20019;-63
2022/12/10 08:35:00;;;;;;;119.65;94.65;;;410.00;2355.20;;;;;;4974176;28;20035;-61
2022/12/10 08:37:26;;;;;;;126.25;96.55;;;409.80;2355.20;;;;;;4973943;28;20038;-60
2022/12/10 08:39:52;;;;;;;160.60;129.48;;;409.60;2355.20;;;;;;4974229;28;20569;-61
2022/12/10 08:42:17;;;;;;;141.07;109.65;;;409.60;2355.20;;;;;;4974349;28;20489;-58
2022/12/10 08:44:43;;;;;;;137.90;116.90;;;409.60;2355.20;;;;;;4974163;28;20385;-61
2022/12/10 08:47:09;;;;;;;183.18;146.50;;;409.70;2355.20;;;;;;4973937;28;20382;-60
2022/12/10 08:49:35;;;;;;;212.10;161.23;;;409.60;2355.20;;;;;;4973625;28;20041;-59
2022/12/10 08:52:00;;;;;;;216.15;162.20;;;409.70;2355.20;;;;;;4973951;28;20027;-62
2022/12/10 08:54:26;;;;;;;271.58;201.85;;;409.60;2355.20;;;;;;4973510;28;20381;-58
2022/12/10 08:56:52;;;;;;;311.02;239.73;;;409.70;2355.20;;;;;;4973817;28;20047;-60
2022/12/10 08:59:19;;;;;;;281.60;209.48;;;409.70;2355.20;;;;;;4973865;28;20058;-58
2022/12/10 09:01:44;;;;;;;98.45;66.38;;;409.80;2355.20;;;;;;4974088;28;20023;-61
2022/12/10 09:04:12;;;;;;;114.57;87.15;;;410.00;2355.20;;;;;;4973704;28;20027;-62
2022/12/10 09:06:38;;;;;;;136.73;109.03;;;410.20;2355.20;;;;;;4973292;28;20066;-59
2022/12/10 09:09:03;;;;;;;109.50;84.22;;;410.30;2355.20;;;;;;4973165;28;20073;-61
2022/12/10 09:11:33;;;;;;;32.00;24.45;;;410.50;2355.20;;;;;;4973135;28;20110;-58
2022/12/10 09:13:59;;;;;;;37.03;23.88;;;435.30;2355.20;;;;;;4973468;28;20465;-58
2022/12/10 09:16:34;;;;;;;50.58;39.75;;;435.50;2355.20;;;;;;4973489;28;20073;-65
2022/12/10 09:19:00;;;;;;;98.22;76.82;;;435.70;2355.20;;;;;;4973515;28;20470;-58
2022/12/10 09:21:26;;;;;;;88.60;71.47;;;435.60;2355.20;;;;;;4973373;28;20429;-61
2022/12/10 09:23:52;;;;;;;76.10;54.75;;;435.40;2355.20;;;;;;4973392;28;20704;-58
2022/12/10 09:26:19;;;;;;;64.18;47.38;;;436.10;2355.20;;;;;;4972900;28;20119;-64
2022/12/10 09:28:46;;;;;;;42.40;34.90;;;461.20;2380.80;;;;;;4973224;28;20027;-63
2022/12/10 09:31:13;;;;;;;50.38;36.05;;;461.60;2380.80;;;;;;4973296;28;20030;-63
2022/12/10 09:33:39;;;;;;;30.35;22.67;;;461.70;2380.80;;;;;;4973426;28;20397;-60
2022/12/10 09:36:07;;;;;;;26.02;17.60;;;461.50;2380.80;;;;;;4971679;28;20027;-61
2022/12/10 09:38:41;;;;;;;24.20;18.27;;;461.20;2380.80;;;;;;4972796;28;20393;-59
2022/12/10 09:41:44;;;;;;;28.67;17.38;;;461.10;2380.80;;;;;;4972785;28;20374;-58
2022/12/10 09:44:25;;;;;;;20.30;16.33;;;461.10;2380.80;;;;;;4972952;28;20030;-60
2022/12/10 09:46:53;;;;;;;16.88;11.43;;;461.00;2380.80;;;;;;4973223;28;20485;-62
2022/12/10 09:49:34;;;;;;;16.85;11.18;;;436.10;2355.20;;;;;;4972672;28;20496;-62
2022/12/10 09:52:03;;;;;;;19.02;12.25;;;436.00;2355.20;;;;;;4972915;28;20077;-58
2022/12/10 09:54:32;;;;;;;22.92;14.63;;;435.90;2355.20;;;;;;4972847;28;20097;-60
2022/12/10 09:57:00;;;;;;;19.67;13.75;;;435.90;2355.20;;;;;;4972734;28;20049;-60
2022/12/10 09:59:40;;;;;;;17.08;11.52;;;435.90;2355.20;;;;;;4972684;28;20027;-59
2022/12/10 10:02:24;;;;;;;21.58;13.73;;;435.90;2355.20;;;;;;4972541;28;20504;-60
2022/12/10 10:04:51;;;;;;;24.23;16.60;;;436.00;2355.20;;;;;;4972820;28;20109;-55
2022/12/10 10:07:26;;;;;;;19.67;12.70;;;436.10;2355.20;;;;;;4972447;28;20027;-60
2022/12/10 10:10:32;;;;;;;19.75;12.68;;;436.10;2355.20;;;;;;4972521;28;20066;-55
2022/12/10 10:13:18;;;;;;;20.33;12.60;;;460.90;2380.80;;;;;;4912969;29;20040;-64
2022/12/10 10:15:45;;;;;;;14.23;11.45;;;460.80;2380.80;;;;;;4912849;29;20040;-63
2022/12/10 10:18:13;;;;;;;33.22;26.13;;;436.10;2355.20;;;;;;4912694;29;20156;-63
2022/12/10 10:20:39;;;;;;;25.40;17.77;;;436.10;2355.20;;;;;;4912697;29;20458;-63
2022/12/10 10:23:06;;;;;;;33.05;26.05;;;460.90;2380.80;;;;;;4912631;29;20067;-56
2022/12/10 10:25:32;;;;;;;15.95;12.45;;;460.80;2380.80;;;;;;4912876;29;20036;-65
2022/12/10 10:27:58;;;;;;;16.65;12.30;;;460.90;2380.80;;;;;;4912753;29;20040;-58
2022/12/10 10:30:24;;;;;;;25.13;17.65;;;460.90;2380.80;;;;;;4912406;29;20048;-63
2022/12/10 10:32:55;;;;;;;19.88;14.13;;;460.80;2380.80;;;;;;4912705;29;20103;-53
2022/12/10 10:35:23;;;;;;;53.35;33.67;;;461.00;2380.80;;;;;;4912466;29;20515;-64
2022/12/10 10:37:49;;;;;;;44.33;33.28;;;461.30;2380.80;;;;;;4912235;29;20090;-52
2022/12/10 10:40:27;;;;;;;46.35;35.20;;;461.50;2380.80;;;;;;4912168;29;20059;-53
2022/12/10 10:42:57;;;;;;;78.30;55.38;;;461.70;2380.80;;;;;;4912432;29;20439;-54
2022/12/10 10:45:41;;;;;;;52.92;40.00;;;461.70;2380.80;;;;;;4912267;29;20147;-55
2022/12/10 10:48:19;;;;;;;56.67;45.08;;;461.40;2380.80;;;;;;4911508;29;20031;-57
2022/12/10 10:51:05;;;;;;;51.38;39.50;;;461.30;2380.80;;;;;;4968286;28;20049;-61
2022/12/10 10:53:38;;;;;;;55.55;35.75;;;461.40;2380.80;;;;;;4971580;28;20082;-53
2022/12/10 10:56:10;;;;;;;54.38;36.13;;;461.50;2380.80;;;;;;4976423;28;20053;-53
2022/12/10 10:58:45;;;;;;;85.30;65.40;;;461.40;2380.80;;;;;;4980333;28;20062;-63
2022/12/10 11:01:11;;;;;;;112.53;81.90;;;461.40;2380.80;;;;;;4970848;28;20042;-64
2022/12/10 11:03:45;;;;;;;118.07;83.13;;;461.40;2380.80;;;;;;4972939;28;20027;-57
2022/12/10 11:06:12;;;;;;;66.03;48.70;;;461.50;2380.80;;;;;;4971411;28;20070;-63
2022/12/10 11:08:39;;;;;;;63.60;46.17;;;461.40;2380.80;;;;;;4971194;28;20057;-54
2022/12/10 11:11:12;;;;;;;51.63;36.95;;;461.40;2380.80;;;;;;4971222;28;20034;-60
2022/12/10 11:13:39;;;;;;;52.58;39.85;;;461.40;2380.80;;;;;;4971493;28;20031;-53
2022/12/10 11:16:24;;;;;;;62.58;43.50;;;461.60;2380.80;;;;;;4972622;28;20035;-53
2022/12/10 11:19:04;;;;;;;73.95;51.53;;;461.70;2380.80;;;;;;4971782;28;20062;-64
2022/12/10 11:21:38;;;;;;;96.68;65.47;;;461.50;2380.80;;;;;;4973596;28;20033;-63
2022/12/10 11:24:11;;;;;;;106.82;75.25;;;461.50;2380.80;;;;;;4971889;28;20045;-53
2022/12/10 11:26:43;;;;;;;89.03;62.72;;;486.50;2380.80;;;;;;4971710;28;20027;-64
2022/12/10 11:29:34;;;;;;;79.13;57.33;;;486.50;2380.80;;;;;;4971641;28;20442;-62
2022/12/10 11:32:26;;;;;;;94.40;73.50;;;486.60;2380.80;;;;;;4971676;28;20027;-60
2022/12/10 11:35:02;;;;;;;91.53;67.60;;;486.50;2380.80;;;;;;4971556;28;20034;-55
2022/12/10 11:37:38;;;;;;;91.28;70.03;;;486.50;2380.80;;;;;;4970319;28;20027;-55
2022/12/10 11:40:33;;;;;;;91.13;70.63;;;486.70;2380.80;;;;;;4969060;28;20390;-54
2022/12/10 11:42:58;;;;;;;96.65;71.88;;;486.70;2380.80;;;;;;4969422;28;20035;-55
2022/12/10 11:45:47;;;;;;;112.18;78.55;;;486.80;2380.80;;;;;;4969694;28;20232;-55
2022/12/10 11:48:39;;;;;;;117.20;82.18;;;486.50;2380.80;;;;;;4970357;28;20432;-54
2022/12/10 11:51:19;;;;;;;104.15;75.65;;;486.50;2380.80;;;;;;4970529;28;20118;-53
2022/12/10 11:54:17;;;;;;;94.93;62.65;;;486.60;2380.80;;;;;;4970456;28;20054;-54
2022/12/10 11:56:52;;;;;;;68.65;46.20;;;486.70;2380.80;;;;;;4970678;28;20051;-54
2022/12/10 12:00:00;;;;;;;60.83;41.55;;;486.60;2380.80;;;;;;4971208;28;20026;-58
2022/12/10 12:02:46;;;;;;;43.10;29.75;;;486.70;2380.80;;;;;;4974476;28;20031;-65
2022/12/10 12:05:21;;;;;;;65.57;42.85;;;486.70;2380.80;;;;;;4974743;28;20034;-65
2022/12/10 12:08:06;;;;;;;75.60;45.60;;;486.70;2380.80;;;;;;4974188;28;20118;-67
2022/12/10 12:10:50;;;;;;;66.95;45.33;;;486.60;2380.80;;;;;;4984484;28;20046;-53
2022/12/10 12:13:19;;;;;;;86.45;55.33;;;486.80;2380.80;;;;;;4993945;28;20053;-56
2022/12/10 12:16:09;;;;;;;73.20;43.47;;;486.70;2380.80;;;;;;4993951;28;20031;-53
2022/12/10 12:18:44;;;;;;;46.95;32.42;;;486.60;2380.80;;;;;;4993916;28;20445;-57
2022/12/10 12:21:17;;;;;;;42.47;27.67;;;486.70;2380.80;;;;;;4993765;28;20377;-58